Archival Weather

Republic

Farmingdale, New York (KFRG)

Report from: Wednesday, February 7, 2024 7:53 AM EST
Current time: Saturday, June 22, 2024 6:04 AM EDT

Current weather – Weather history – Daily summaries
Weather forecast

Temperature0.6°C (33.1°F)
Wind chill-2.9°C (26.9°F)
Dew point-4.4°C (24.1°F)
Winds 6 kts (3.1 m/s, 6.9 mph) North (350°)
Visibility10 mi. (16.1 km)
Clouds Sky clear
Altimeter30.32 in.Hg (1027 mB)
Relative humidity69 %
Density altitude-2,148 ft. (-655 m)
Sea-level pressure102.7 kPa (1027 mB, 30.32 in.Hg)
Remarks Automated weather observing station without precipitation discriminator
Flight conditions Visual Meteorological Conditions
Raw dataKFRG 071253Z 35006KT 10SM CLR 01/M04 A3032 RMK AO1 SLP268 T00061044
An error has occurred. This application may no longer respond until reloaded. Reload 🗙